Time;durP1;ratioP1;P1;durP2;ratioP2;P2;SDS_P1;SDS_P2;PMS_P1;PMS_P2;Temp;Humidity;BMP_temperature;BMP_pressure;BME280_temperature;BME280_humidity;BME280_pressure;Samples;Min_cycle;Max_cycle;Signal;HPM_P1;HPM_P2
2022/04/22 00:01:38;;;;;;;6.60;5.90;;;9.60;99.90;;;;;;10391596;28;20216;-69
2022/04/22 00:06:38;;;;;;;8.27;6.20;;;9.50;99.90;;;;;;10391609;28;20224;-70
2022/04/22 00:11:39;;;;;;;6.93;5.70;;;9.50;99.90;;;;;;10386095;28;20241;-70
2022/04/22 00:16:40;;;;;;;9.13;6.33;;;9.40;99.90;;;;;;10375998;28;20228;-68
2022/04/22 00:21:42;;;;;;;8.60;7.23;;;9.40;99.90;;;;;;10392642;28;20307;-69
2022/04/22 00:26:42;;;;;;;10.30;7.30;;;9.30;99.90;;;;;;10384272;28;20217;-69
2022/04/22 00:31:43;;;;;;;9.07;7.30;;;9.20;99.90;;;;;;10391917;28;20270;-68
2022/04/22 00:36:50;;;;;;;11.17;7.37;;;9.20;99.90;;;;;;10388232;28;20251;-69
2022/04/22 00:41:50;;;;;;;10.67;7.80;;;9.20;99.90;;;;;;10386316;28;20578;-70
2022/04/22 00:46:51;;;;;;;11.93;7.73;;;9.10;99.90;;;;;;10390845;28;20216;-70
2022/04/22 00:51:52;;;;;;;13.50;8.03;;;9.10;99.90;;;;;;10386596;28;20217;-69
2022/04/22 00:56:53;;;;;;;11.57;8.23;;;9.00;99.90;;;;;;10390927;28;20298;-69
2022/04/22 01:01:54;;;;;;;12.00;8.37;;;8.90;99.90;;;;;;10384369;28;20699;-70
2022/04/22 01:12:16;;;;;;;11.77;9.03;;;8.80;99.90;;;;;;10384611;28;20308;-70
2022/04/22 01:17:17;;;;;;;10.40;9.17;;;8.80;99.90;;;;;;10397276;28;20323;-71
2022/04/22 01:22:17;;;;;;;11.93;9.80;;;8.80;99.90;;;;;;10392886;28;20300;-68
2022/04/22 01:27:19;;;;;;;11.83;10.00;;;8.70;99.90;;;;;;10397563;28;20662;-69
2022/04/22 01:32:19;;;;;;;13.53;10.47;;;8.60;99.90;;;;;;10392000;28;20275;-70
2022/04/22 01:37:20;;;;;;;13.13;10.23;;;8.60;99.90;;;;;;10396469;28;20330;-69
2022/04/22 01:42:24;;;;;;;15.20;10.77;;;8.50;99.90;;;;;;10392301;28;20292;-68
2022/04/22 01:47:24;;;;;;;18.60;11.77;;;8.40;99.90;;;;;;10397765;28;20692;-69
2022/04/22 01:52:25;;;;;;;18.87;13.33;;;8.30;99.90;;;;;;10399632;28;20219;-69
2022/04/22 01:57:26;;;;;;;16.43;12.00;;;8.30;99.90;;;;;;10397011;28;20604;-69
2022/04/22 02:02:26;;;;;;;21.60;14.13;;;8.30;99.90;;;;;;10394189;28;20291;-69
2022/04/22 02:07:27;;;;;;;17.60;13.67;;;8.30;99.90;;;;;;10398174;28;20220;-69
2022/04/22 02:12:28;;;;;;;26.20;15.30;;;8.40;99.90;;;;;;10390377;28;20221;-69
2022/04/22 02:17:28;;;;;;;23.83;15.50;;;8.40;99.90;;;;;;10395165;28;20712;-68
2022/04/22 02:22:29;;;;;;;22.13;15.50;;;8.40;99.90;;;;;;10390849;28;20244;-68
2022/04/22 02:32:50;;;;;;;23.97;16.10;;;8.40;99.90;;;;;;10390658;28;20216;-68
2022/04/22 02:37:52;;;;;;;25.43;16.83;;;8.40;99.90;;;;;;10396552;28;20229;-68
2022/04/22 02:48:12;;;;;;;22.20;16.30;;;8.30;99.90;;;;;;10391716;28;20221;-69
2022/04/22 02:53:13;;;;;;;24.23;16.43;;;8.30;99.90;;;;;;10392489;28;20242;-69
2022/04/22 02:58:14;;;;;;;23.40;16.53;;;8.30;99.90;;;;;;10391406;28;20221;-68
2022/04/22 03:03:15;;;;;;;22.10;15.43;;;8.30;99.90;;;;;;10395202;28;20281;-68
2022/04/22 03:08:16;;;;;;;23.07;16.07;;;8.30;99.90;;;;;;10398478;28;20224;-69
2022/04/22 03:13:17;;;;;;;26.33;16.10;;;8.20;99.90;;;;;;10392562;28;20288;-68
2022/04/22 03:18:17;;;;;;;22.90;16.80;;;8.20;99.90;;;;;;10391010;28;20750;-68
2022/04/22 03:23:21;;;;;;;26.23;16.77;;;8.20;99.90;;;;;;10396749;28;20209;-70
2022/04/22 03:28:23;;;;;;;23.10;16.70;;;8.20;99.90;;;;;;10386699;28;20248;-68
2022/04/22 03:33:24;;;;;;;24.20;15.97;;;8.20;99.90;;;;;;10393651;28;20307;-68
2022/04/22 03:38:24;;;;;;;24.53;17.23;;;8.20;99.90;;;;;;10387194;28;20292;-71
2022/04/22 03:43:25;;;;;;;23.10;16.60;;;8.20;99.90;;;;;;10390784;28;20426;-69
2022/04/22 03:48:27;;;;;;;22.17;16.17;;;8.20;99.90;;;;;;10387764;28;20291;-69
2022/04/22 03:53:31;;;;;;;25.97;18.00;;;8.10;99.90;;;;;;10394962;28;20241;-67
2022/04/22 03:58:31;;;;;;;23.53;16.70;;;8.10;99.90;;;;;;10392491;28;20327;-69
2022/04/22 04:03:32;;;;;;;24.03;16.83;;;8.10;99.90;;;;;;10389318;28;20294;-69
2022/04/22 04:08:33;;;;;;;21.50;16.80;;;8.10;99.90;;;;;;10393002;28;20688;-68
2022/04/22 04:18:44;;;;;;;24.13;16.53;;;8.10;99.90;;;;;;10384470;28;20783;-69
2022/04/22 04:23:44;;;;;;;26.93;17.47;;;8.00;99.90;;;;;;10385578;28;20242;-69
2022/04/22 04:28:47;;;;;;;23.03;16.13;;;7.90;99.90;;;;;;10390007;28;20232;-70
2022/04/22 04:33:49;;;;;;;23.10;17.23;;;7.90;99.90;;;;;;10383751;28;20279;-68
2022/04/22 04:38:49;;;;;;;21.10;15.73;;;8.00;99.90;;;;;;10390754;28;20256;-69
2022/04/22 04:43:51;;;;;;;24.10;17.30;;;8.00;99.90;;;;;;10397043;28;20718;-67
2022/04/22 04:48:54;;;;;;;24.47;17.23;;;8.10;99.90;;;;;;10383461;28;20299;-68
2022/04/22 04:53:55;;;;;;;24.90;17.50;;;8.20;99.90;;;;;;10387455;28;20654;-68
2022/04/22 04:58:55;;;;;;;24.27;17.80;;;8.20;99.90;;;;;;10395007;28;20373;-68
2022/04/22 05:03:56;;;;;;;26.27;16.80;;;8.30;99.90;;;;;;10394302;28;20215;-69
2022/04/22 05:08:57;;;;;;;24.07;16.77;;;8.40;99.90;;;;;;10405160;28;20246;-68
2022/04/22 05:13:58;;;;;;;24.67;16.73;;;8.50;99.90;;;;;;10393268;28;20244;-68
2022/04/22 05:18:59;;;;;;;24.20;17.27;;;8.60;99.90;;;;;;10396042;28;20712;-70
2022/04/22 05:23:59;;;;;;;22.57;17.03;;;8.70;99.90;;;;;;10393351;28;20299;-67
2022/04/22 05:29:03;;;;;;;17.50;14.37;;;8.90;99.90;;;;;;10393250;28;20213;-68
2022/04/22 05:34:06;;;;;;;21.27;15.83;;;9.10;99.90;;;;;;10396945;28;20839;-68
2022/04/22 05:39:08;;;;;;;21.40;15.40;;;9.40;99.90;;;;;;10390641;28;20225;-70
2022/04/22 05:44:09;;;;;;;17.63;14.33;;;10.30;99.90;;;;;;10393741;28;20219;-69
2022/04/22 05:49:10;;;;;;;17.97;13.37;;;10.30;99.90;;;;;;10400496;28;20223;-69
2022/04/22 05:54:10;;;;;;;17.10;14.30;;;10.80;99.90;;;;;;10400908;28;20221;-69
2022/04/22 05:59:11;;;;;;;19.03;14.17;;;10.60;99.90;;;;;;10394420;28;20224;-68
2022/04/22 06:04:11;;;;;;;19.00;13.93;;;10.60;99.90;;;;;;10392108;28;20217;-68
2022/04/22 06:14:31;;;;;;;15.80;12.67;;;12.50;99.90;;;;;;10396423;28;20220;-69
2022/04/22 06:19:31;;;;;;;17.43;12.53;;;14.40;99.90;;;;;;10389612;28;20227;-68
2022/04/22 06:24:32;;;;;;;17.13;11.27;;;15.90;99.90;;;;;;10394505;28;20688;-68
2022/04/22 06:29:33;;;;;;;11.50;10.30;;;16.80;98.80;;;;;;10389132;28;20225;-68
2022/04/22 06:34:33;;;;;;;15.23;11.50;;;17.40;94.20;;;;;;10395753;28;20221;-68
2022/04/22 06:45:46;;;;;;;14.93;10.60;;;17.30;92.00;;;;;;10395853;28;20229;-70
2022/04/22 06:50:19;;;;;;;14.97;10.90;;;18.00;86.40;;;;;;10389601;28;20601;-69
2022/04/22 06:55:21;;;;;;;12.30;10.73;;;17.20;86.60;;;;;;10392219;28;20231;-68
2022/04/22 07:00:21;;;;;;;11.17;9.97;;;15.10;93.10;;;;;;10387910;28;20215;-68
2022/04/22 07:05:22;;;;;;;10.43;9.40;;;14.30;96.20;;;;;;10392243;28;20410;-69
2022/04/22 07:10:23;;;;;;;11.83;9.87;;;13.50;97.60;;;;;;10380544;28;20195;-68
2022/04/22 07:15:25;;;;;;;11.43;9.43;;;13.30;99.00;;;;;;10392669;28;20231;-69
2022/04/22 07:20:26;;;;;;;12.27;9.17;;;13.40;99.60;;;;;;10384594;28;20806;-69
2022/04/22 07:25:28;;;;;;;13.10;9.23;;;13.20;99.90;;;;;;10387462;28;20217;-68
2022/04/22 07:30:28;;;;;;;10.90;8.73;;;13.30;99.90;;;;;;10392874;28;20271;-68
2022/04/22 07:35:29;;;;;;;13.07;8.10;;;13.70;99.30;;;;;;10386587;28;20717;-69
2022/04/22 07:40:30;;;;;;;9.63;7.13;;;16.20;94.30;;;;;;10384725;28;20232;-68
2022/04/22 07:50:51;;;;;;;11.47;7.73;;;19.20;77.80;;;;;;10389367;28;20621;-69
2022/04/22 07:55:51;;;;;;;8.23;6.70;;;20.10;71.30;;;;;;10393029;28;20277;-69
2022/04/22 08:00:52;;;;;;;8.50;7.60;;;20.10;66.90;;;;;;10403749;28;20232;-69
2022/04/22 08:05:53;;;;;;;15.70;6.67;;;20.40;64.00;;;;;;10387336;28;20223;-69
2022/04/22 08:10:53;;;;;;;7.53;6.77;;;21.10;61.20;;;;;;10384243;28;20223;-69
2022/04/22 08:15:54;;;;;;;7.90;6.70;;;21.50;58.40;;;;;;10388708;28;20231;-69
2022/04/22 08:20:55;;;;;;;10.23;7.13;;;22.10;56.60;;;;;;10384559;28;20229;-68
2022/04/22 08:25:56;;;;;;;7.43;6.73;;;21.70;55.60;;;;;;10386673;28;20229;-68
2022/04/22 08:30:56;;;;;;;11.57;6.70;;;22.30;54.40;;;;;;10392948;28;20302;-69
2022/04/22 08:35:58;;;;;;;8.10;7.07;;;22.50;54.00;;;;;;10388991;28;20227;-69
2022/04/22 08:41:01;;;;;;;7.00;6.30;;;23.20;52.10;;;;;;10392440;28;20719;-69
2022/04/22 08:46:01;;;;;;;6.90;6.20;;;23.60;50.90;;;;;;10389236;28;20224;-69
2022/04/22 08:51:02;;;;;;;6.80;6.17;;;24.30;48.50;;;;;;10386526;28;20225;-69
2022/04/22 08:56:03;;;;;;;9.53;5.93;;;24.80;46.90;;;;;;10387992;28;20316;-72
2022/04/22 09:01:04;;;;;;;7.00;5.80;;;24.90;45.30;;;;;;10386723;28;20726;-70
2022/04/22 09:06:05;;;;;;;7.27;5.80;;;25.20;45.60;;;;;;10387929;28;20233;-70
2022/04/22 09:11:06;;;;;;;7.17;6.23;;;26.10;44.10;;;;;;10390187;28;20282;-69
2022/04/22 09:16:07;;;;;;;12.33;6.10;;;25.60;42.90;;;;;;10387102;28;20221;-68
2022/04/22 09:21:18;;;;;;;6.03;5.43;;;24.90;43.00;;;;;;10387632;28;20599;-69
2022/04/22 09:26:22;;;;;;;6.57;5.67;;;24.70;43.20;;;;;;10389742;28;20312;-69
2022/04/22 09:31:25;;;;;;;11.10;5.43;;;25.40;43.30;;;;;;10389055;28;20212;-68
2022/04/22 09:47:13;;;;;;;7.17;4.70;;;26.20;39.90;;;;;;10397934;28;20273;-69
2022/04/22 09:52:13;;;;;;;7.63;4.90;;;26.80;40.20;;;;;;10393252;28;20227;-68
2022/04/22 09:57:14;;;;;;;6.13;5.53;;;26.50;38.80;;;;;;10402563;28;20847;-69
2022/04/22 10:02:23;;;;;;;5.83;4.83;;;26.60;39.00;;;;;;10392828;28;20271;-69
2022/04/22 10:07:27;;;;;;;5.43;4.70;;;26.40;39.20;;;;;;10389086;28;20255;-69
2022/04/22 10:12:30;;;;;;;5.27;4.40;;;27.10;38.30;;;;;;10394625;28;20212;-69
2022/04/22 10:17:34;;;;;;;6.50;4.60;;;27.00;38.10;;;;;;10396486;28;20600;-70
2022/04/22 10:22:36;;;;;;;6.53;4.50;;;27.80;37.40;;;;;;10389593;28;20218;-69
2022/04/22 10:27:39;;;;;;;6.93;4.70;;;27.70;36.60;;;;;;10396406;28;20303;-69
2022/04/22 10:32:42;;;;;;;5.23;4.73;;;26.60;37.80;;;;;;10389295;28;20225;-69
2022/04/22 10:37:43;;;;;;;6.20;4.73;;;26.80;37.50;;;;;;10395361;28;20233;-70
2022/04/22 10:42:44;;;;;;;6.93;4.47;;;27.50;36.90;;;;;;10388133;28;20221;-69
2022/04/22 10:47:48;;;;;;;7.37;4.70;;;27.90;35.90;;;;;;10394793;28;20307;-69
2022/04/22 10:53:07;;;;;;;5.93;4.73;;;27.40;36.30;;;;;;10402263;28;20229;-68
2022/04/22 10:58:21;;;;;;;6.93;4.87;;;25.70;37.80;;;;;;10391208;28;20256;-69
2022/04/22 11:03:31;;;;;;;6.87;5.40;;;24.20;40.80;;;;;;10392584;28;20316;-68
2022/04/22 11:08:37;;;;;;;8.27;5.03;;;22.00;45.80;;;;;;10388126;28;20221;-69
2022/04/22 11:13:38;;;;;;;7.83;5.00;;;20.80;48.20;;;;;;10395255;28;20228;-68
2022/04/22 11:18:41;;;;;;;8.87;5.40;;;20.70;48.50;;;;;;10385645;28;20283;-69
2022/04/22 11:23:46;;;;;;;6.00;5.40;;;20.60;49.80;;;;;;10394966;28;20274;-69
2022/04/22 11:28:49;;;;;;;5.80;4.97;;;20.60;49.40;;;;;;10392290;28;20244;-69
2022/04/22 11:33:58;;;;;;;5.30;4.80;;;20.50;50.20;;;;;;10387093;28;20280;-69
2022/04/22 11:38:59;;;;;;;9.97;5.40;;;20.30;50.10;;;;;;10390852;28;20379;-68
2022/04/22 11:44:04;;;;;;;5.30;4.80;;;20.30;50.00;;;;;;10390279;28;20691;-69
2022/04/22 11:49:06;;;;;;;6.77;4.87;;;20.20;51.00;;;;;;10399373;28;20231;-69
2022/04/22 11:54:07;;;;;;;8.00;5.30;;;20.80;50.10;;;;;;10388051;28;20248;-68
2022/04/22 11:59:08;;;;;;;7.37;5.23;;;20.30;50.40;;;;;;10397764;28;20268;-68
2022/04/22 12:09:31;;;;;;;7.60;5.10;;;20.30;51.10;;;;;;10384650;28;20332;-69
2022/04/22 12:14:32;;;;;;;4.63;4.17;;;20.30;50.60;;;;;;10391775;28;20319;-68
2022/04/22 12:19:33;;;;;;;6.47;5.53;;;20.30;50.70;;;;;;10391615;28;20691;-68
2022/04/22 12:24:35;;;;;;;5.03;4.43;;;20.10;51.40;;;;;;10392335;28;20213;-69
2022/04/22 12:29:38;;;;;;;9.30;5.17;;;20.10;51.80;;;;;;10385039;28;20228;-70
2022/04/22 12:34:39;;;;;;;8.30;5.37;;;20.10;51.50;;;;;;10384389;28;20224;-69
2022/04/22 12:39:41;;;;;;;5.93;5.30;;;20.00;51.30;;;;;;10392170;28;20229;-68
2022/04/22 12:52:07;;;;;;;6.40;5.27;;;19.90;51.00;;;;;;10376878;28;20218;-69
2022/04/22 12:55:31;;;;;;;5.00;4.50;;;19.70;51.70;;;;;;10385100;28;20703;-70
2022/04/22 13:00:33;;;;;;;5.33;4.77;;;19.90;51.10;;;;;;10384578;28;20312;-69
2022/04/22 13:05:33;;;;;;;6.27;4.90;;;19.90;50.10;;;;;;10390205;28;20228;-68
2022/04/22 13:10:34;;;;;;;6.83;4.00;;;19.90;50.80;;;;;;10391115;28;20713;-69
2022/04/22 13:15:34;;;;;;;6.20;4.53;;;19.90;51.40;;;;;;10387729;28;20308;-68
2022/04/22 13:20:35;;;;;;;4.80;3.90;;;19.60;50.90;;;;;;10398582;28;20238;-68
2022/04/22 13:25:35;;;;;;;4.20;3.73;;;19.60;50.60;;;;;;10391368;28;20221;-67
2022/04/22 13:30:36;;;;;;;8.07;3.57;;;19.80;50.10;;;;;;10397525;28;20226;-68
2022/04/22 13:35:37;;;;;;;3.97;3.63;;;20.00;49.70;;;;;;10390781;28;20221;-68
2022/04/22 13:40:37;;;;;;;5.30;4.30;;;20.10;48.90;;;;;;10397156;28;20287;-68
2022/04/22 13:56:16;;;;;;;5.97;3.40;;;20.20;49.30;;;;;;10395053;28;20224;-68
2022/04/22 14:01:17;;;;;;;3.53;3.23;;;20.50;49.00;;;;;;10401514;28;20747;-68
2022/04/22 14:06:18;;;;;;;4.83;3.30;;;20.90;47.60;;;;;;10395255;28;20220;-68
2022/04/22 14:11:21;;;;;;;5.73;3.40;;;20.70;47.90;;;;;;10391368;28;20217;-68
2022/04/22 14:16:25;;;;;;;5.27;3.40;;;20.80;49.00;;;;;;10394367;28;20212;-68
2022/04/22 14:21:26;;;;;;;7.50;2.90;;;20.40;48.90;;;;;;10390066;28;20270;-67
2022/04/22 14:26:30;;;;;;;3.80;3.10;;;20.30;49.40;;;;;;10393548;28;20284;-68
2022/04/22 14:31:31;;;;;;;3.80;3.00;;;20.50;48.60;;;;;;10389776;28;20267;-69
2022/04/22 14:36:31;;;;;;;3.43;3.13;;;20.50;48.50;;;;;;10393489;28;20382;-68
2022/04/22 14:41:32;;;;;;;5.37;3.07;;;20.40;48.20;;;;;;10389171;28;20311;-69
2022/04/22 14:46:32;;;;;;;3.67;2.97;;;20.30;47.90;;;;;;10402625;28;20224;-68
2022/04/22 14:51:33;;;;;;;3.43;3.00;;;20.30;48.50;;;;;;10403205;28;20247;-68
2022/04/22 14:56:33;;;;;;;6.40;3.17;;;20.30;48.50;;;;;;10387948;28;20653;-69
2022/04/22 15:01:34;;;;;;;5.87;3.10;;;20.40;48.50;;;;;;10394672;28;20710;-68
2022/04/22 15:06:36;;;;;;;3.70;3.03;;;20.40;47.70;;;;;;10386782;28;20448;-68
2022/04/22 15:11:36;;;;;;;3.97;2.80;;;20.40;47.50;;;;;;10386701;28;20316;-68
2022/04/22 15:16:37;;;;;;;3.10;2.50;;;20.20;47.60;;;;;;10393489;28;20308;-69
2022/04/22 15:26:58;;;;;;;5.90;3.57;;;19.80;49.00;;;;;;10388100;28;20221;-70
2022/04/22 15:31:59;;;;;;;3.47;2.90;;;19.70;48.80;;;;;;10390866;28;20225;-68
2022/04/22 15:37:01;;;;;;;8.53;2.83;;;19.90;48.60;;;;;;10394490;28;20228;-68
2022/04/22 15:42:03;;;;;;;3.03;2.70;;;19.90;48.20;;;;;;10395372;28;20227;-68
2022/04/22 15:47:04;;;;;;;4.40;2.63;;;19.70;48.10;;;;;;10393891;28;20223;-69
2022/04/22 15:52:05;;;;;;;3.40;3.03;;;19.60;47.80;;;;;;10392540;28;20856;-67
2022/04/22 15:57:08;;;;;;;6.47;3.13;;;19.60;48.10;;;;;;10397944;28;20878;-69
2022/04/22 16:02:10;;;;;;;4.43;3.80;;;19.60;50.30;;;;;;10388090;28;20227;-68
2022/04/22 16:07:10;;;;;;;5.30;3.60;;;19.50;52.10;;;;;;10392335;28;20228;-69
2022/04/22 16:17:30;;;;;;;5.43;3.10;;;19.20;53.20;;;;;;10393729;28;20270;-69
2022/04/22 16:22:32;;;;;;;4.70;3.43;;;19.00;53.80;;;;;;10392969;28;20234;-69
2022/04/22 16:27:32;;;;;;;3.10;2.80;;;19.00;53.70;;;;;;10385399;28;20231;-70
2022/04/22 16:32:33;;;;;;;3.10;2.50;;;19.10;51.60;;;;;;10390003;28;20242;-69
2022/04/22 16:37:34;;;;;;;7.67;3.00;;;19.10;51.50;;;;;;10385189;28;20240;-69
2022/04/22 16:42:40;;;;;;;5.20;3.30;;;19.00;52.80;;;;;;10392495;28;20690;-69
2022/04/22 16:47:41;;;;;;;13.67;3.73;;;18.90;52.60;;;;;;10385457;28;20958;-68
2022/04/22 16:52:45;;;;;;;6.20;3.13;;;18.90;53.00;;;;;;10391049;28;20250;-68
2022/04/22 16:57:47;;;;;;;6.43;3.93;;;18.80;53.30;;;;;;10391243;28;20725;-68
2022/04/22 17:02:48;;;;;;;5.27;3.57;;;18.70;53.00;;;;;;10391307;28;20271;-68
2022/04/22 17:07:49;;;;;;;11.93;5.20;;;18.60;53.80;;;;;;10390698;28;20227;-68
2022/04/22 17:12:50;;;;;;;6.47;4.97;;;18.40;55.30;;;;;;10384319;28;20238;-68
2022/04/22 17:23:13;;;;;;;8.97;5.77;;;18.00;56.90;;;;;;10388357;28;20615;-69
2022/04/22 17:28:13;;;;;;;6.50;5.57;;;17.80;57.80;;;;;;10387209;28;20230;-68
2022/04/22 17:33:15;;;;;;;6.97;5.53;;;17.70;58.40;;;;;;10398477;28;20584;-68
2022/04/22 17:38:15;;;;;;;6.57;5.93;;;17.60;58.90;;;;;;10392550;28;20710;-68
2022/04/22 17:43:16;;;;;;;10.20;6.30;;;17.40;59.50;;;;;;10384694;28;20246;-68
2022/04/22 17:48:18;;;;;;;9.03;6.10;;;17.30;60.20;;;;;;10386506;28;20313;-68
2022/04/22 17:53:21;;;;;;;8.77;6.30;;;17.20;60.80;;;;;;10385662;28;20684;-69
2022/04/22 17:58:23;;;;;;;9.93;6.43;;;17.00;61.40;;;;;;10389252;28;20271;-69
2022/04/22 18:03:24;;;;;;;9.30;6.43;;;16.90;61.70;;;;;;10397957;28;20239;-68
2022/04/22 18:08:24;;;;;;;8.20;6.07;;;16.70;62.20;;;;;;10398853;28;20224;-68
2022/04/22 18:13:25;;;;;;;6.60;5.90;;;16.60;62.80;;;;;;10396795;28;20720;-69
2022/04/22 18:18:27;;;;;;;6.90;5.57;;;16.50;63.30;;;;;;10398923;28;20239;-69
2022/04/22 18:23:27;;;;;;;7.83;6.73;;;16.40;64.30;;;;;;10394820;28;20223;-68
2022/04/22 18:28:28;;;;;;;10.20;5.93;;;16.30;64.70;;;;;;10387700;28;20219;-68
2022/04/22 18:33:31;;;;;;;7.93;6.20;;;16.20;65.50;;;;;;10392853;28;20227;-68
2022/04/22 18:38:32;;;;;;;6.43;5.83;;;16.10;65.80;;;;;;10386811;28;20720;-68
2022/04/22 18:43:33;;;;;;;8.07;6.10;;;16.00;66.30;;;;;;10394491;28;20250;-69
2022/04/22 18:48:35;;;;;;;7.80;5.73;;;15.90;66.90;;;;;;10387982;28;20255;-68
2022/04/22 18:53:36;;;;;;;6.37;5.77;;;15.80;67.40;;;;;;10394640;28;20310;-68
2022/04/22 18:58:36;;;;;;;8.27;6.30;;;15.70;68.00;;;;;;10384157;28;20230;-68
2022/04/22 19:03:37;;;;;;;7.00;6.07;;;15.60;68.50;;;;;;10394255;28;20686;-69
2022/04/22 19:08:38;;;;;;;7.10;6.33;;;15.50;68.80;;;;;;10386706;28;20221;-68
2022/04/22 19:13:43;;;;;;;7.87;6.17;;;15.40;69.20;;;;;;10393137;28;20218;-69
2022/04/22 19:18:46;;;;;;;8.03;6.23;;;15.30;70.00;;;;;;10386615;28;20280;-69
2022/04/22 19:23:52;;;;;;;8.77;6.53;;;15.20;70.40;;;;;;10393520;28;20872;-71
2022/04/22 19:28:52;;;;;;;7.83;6.17;;;15.20;70.70;;;;;;10391196;28;20216;-69
2022/04/22 19:33:53;;;;;;;7.03;6.30;;;15.10;70.40;;;;;;10390825;28;20216;-70
2022/04/22 19:44:20;;;;;;;7.53;6.17;;;15.00;69.00;;;;;;10386456;28;20746;-69
2022/04/22 19:49:21;;;;;;;8.10;6.43;;;14.90;68.30;;;;;;10389880;28;20228;-69
2022/04/22 19:54:22;;;;;;;6.83;6.23;;;14.90;67.70;;;;;;10387612;28;20228;-68
2022/04/22 19:59:23;;;;;;;8.03;5.80;;;14.80;67.60;;;;;;10393730;28;20222;-68
2022/04/22 20:04:23;;;;;;;7.37;6.13;;;14.80;67.10;;;;;;10392965;28;20757;-69
2022/04/22 20:09:24;;;;;;;8.43;5.70;;;14.70;66.80;;;;;;10392223;28;20224;-68
2022/04/22 20:14:29;;;;;;;7.37;6.00;;;14.60;67.10;;;;;;10392782;28;20215;-68
2022/04/22 20:19:31;;;;;;;10.93;6.60;;;14.50;67.60;;;;;;10397972;28;20316;-68
2022/04/22 20:24:32;;;;;;;9.63;6.33;;;14.40;67.70;;;;;;10384298;28;20212;-69
2022/04/22 20:29:32;;;;;;;6.90;5.80;;;14.30;68.40;;;;;;10382729;28;20728;-69
2022/04/22 20:45:12;;;;;;;6.63;5.90;;;14.00;70.40;;;;;;10387543;28;20204;-68
2022/04/22 20:50:14;;;;;;;7.93;6.77;;;14.00;70.80;;;;;;10387459;28;20193;-68
2022/04/22 20:55:15;;;;;;;7.03;6.33;;;13.90;71.50;;;;;;10385041;28;20189;-69
2022/04/22 21:00:18;;;;;;;9.63;7.10;;;13.80;72.50;;;;;;10392748;28;20197;-70
2022/04/22 21:05:19;;;;;;;9.03;8.10;;;13.70;72.60;;;;;;10382736;28;20213;-70
2022/04/22 21:10:20;;;;;;;8.97;7.87;;;13.60;73.20;;;;;;10386042;28;20185;-69
2022/04/22 21:15:21;;;;;;;9.57;8.37;;;13.60;73.90;;;;;;10386928;28;20219;-69
2022/04/22 21:20:22;;;;;;;9.60;8.60;;;13.50;74.40;;;;;;10375588;28;20213;-69
2022/04/22 21:25:23;;;;;;;10.00;8.93;;;13.40;74.90;;;;;;10393912;28;20648;-68
2022/04/22 21:30:28;;;;;;;11.10;9.33;;;13.40;75.40;;;;;;10389888;28;20221;-69
2022/04/22 21:35:30;;;;;;;10.87;8.87;;;13.30;75.90;;;;;;10383429;28;20209;-67
2022/04/22 21:40:31;;;;;;;11.30;8.67;;;13.20;76.50;;;;;;10395393;28;20260;-70
2022/04/22 21:45:33;;;;;;;9.83;8.70;;;13.10;76.80;;;;;;10399063;28;20300;-68
2022/04/22 21:50:35;;;;;;;10.47;8.03;;;13.10;77.30;;;;;;10400268;28;20213;-69
2022/04/22 21:55:36;;;;;;;9.80;8.77;;;13.00;78.00;;;;;;10390227;28;20724;-69
2022/04/22 22:01:06;;;;;;;10.00;8.33;;;12.90;78.70;;;;;;10398996;28;20225;-70
2022/04/22 22:06:08;;;;;;;10.50;8.43;;;12.80;79.30;;;;;;10403851;28;20208;-69
2022/04/22 22:11:11;;;;;;;9.50;8.50;;;12.70;79.80;;;;;;10394859;28;20217;-68
2022/04/22 22:16:13;;;;;;;10.93;8.87;;;12.60;80.10;;;;;;10398026;28;20788;-68
2022/04/22 22:21:14;;;;;;;11.67;8.90;;;12.60;80.70;;;;;;10398630;28;20265;-69
2022/04/22 22:26:16;;;;;;;10.27;8.67;;;12.50;81.10;;;;;;10394115;28;20233;-69
2022/04/22 22:31:17;;;;;;;13.97;9.50;;;12.50;81.50;;;;;;10398500;28;20225;-70
2022/04/22 22:36:18;;;;;;;14.73;9.77;;;12.40;82.30;;;;;;10389321;28;20228;-69
2022/04/22 22:41:18;;;;;;;11.33;8.70;;;12.30;83.10;;;;;;10392645;28;20224;-69
2022/04/22 22:46:22;;;;;;;13.37;9.00;;;12.20;83.70;;;;;;10391414;28;20221;-69
2022/04/22 22:51:23;;;;;;;11.87;9.13;;;12.20;84.20;;;;;;10397222;28;20222;-68
2022/04/22 22:56:24;;;;;;;16.90;9.73;;;12.10;84.50;;;;;;10394421;28;20665;-68
2022/04/22 23:01:24;;;;;;;14.87;9.87;;;12.00;85.10;;;;;;10388533;28;20596;-69
2022/04/22 23:06:26;;;;;;;11.73;9.37;;;12.00;85.80;;;;;;10386860;28;20256;-69
2022/04/22 23:11:28;;;;;;;10.67;9.00;;;11.90;86.40;;;;;;10392051;28;20280;-70
2022/04/22 23:16:29;;;;;;;14.57;9.57;;;11.90;87.20;;;;;;10397525;28;20762;-70
2022/04/22 23:21:33;;;;;;;14.83;9.57;;;11.80;87.80;;;;;;10393901;28;20307;-68
2022/04/22 23:26:34;;;;;;;14.33;10.10;;;11.70;88.60;;;;;;10393289;28;20221;-69
2022/04/22 23:31:34;;;;;;;13.27;10.00;;;11.70;89.50;;;;;;10395451;28;20221;-68
2022/04/22 23:36:35;;;;;;;13.63;10.03;;;11.60;90.20;;;;;;10392828;28;20228;-69
2022/04/22 23:41:36;;;;;;;16.30;10.00;;;11.50;90.50;;;;;;10392965;28;20569;-69
2022/04/22 23:46:37;;;;;;;14.60;10.10;;;11.50;91.00;;;;;;10393565;28;20311;-68
2022/04/22 23:51:38;;;;;;;13.47;10.07;;;11.40;91.50;;;;;;10384531;28;20241;-69
2022/04/22 23:56:39;;;;;;;12.83;9.97;;;11.40;92.00;;;;;;10392458;28;20248;-69
